sensor_id;sensor_type;location;lat;lon;timestamp;P1;durP1;ratioP1;P2;durP2;ratioP2
25351;SDS011;13304;48.464;8.712;2024-02-23T00:01:42;1.65;;;0.40;;
25351;SDS011;13304;48.464;8.712;2024-02-23T00:04:11;1.15;;;0.35;;
25351;SDS011;13304;48.464;8.712;2024-02-23T00:06:37;0.52;;;0.22;;
25351;SDS011;13304;48.464;8.712;2024-02-23T00:09:02;0.90;;;0.30;;
25351;SDS011;13304;48.464;8.712;2024-02-23T00:11:28;2.03;;;1.00;;
25351;SDS011;13304;48.464;8.712;2024-02-23T00:13:54;1.08;;;0.35;;
25351;SDS011;13304;48.464;8.712;2024-02-23T00:16:20;2.97;;;0.43;;
25351;SDS011;13304;48.464;8.712;2024-02-23T00:18:45;3.13;;;0.40;;
25351;SDS011;13304;48.464;8.712;2024-02-23T00:21:11;2.97;;;0.60;;
25351;SDS011;13304;48.464;8.712;2024-02-23T00:23:36;2.63;;;0.60;;
25351;SDS011;13304;48.464;8.712;2024-02-23T00:26:02;1.85;;;0.63;;
25351;SDS011;13304;48.464;8.712;2024-02-23T00:28:28;1.42;;;0.40;;
25351;SDS011;13304;48.464;8.712;2024-02-23T00:30:54;2.35;;;0.60;;
25351;SDS011;13304;48.464;8.712;2024-02-23T00:33:20;4.13;;;0.90;;
25351;SDS011;13304;48.464;8.712;2024-02-23T00:35:45;2.55;;;0.70;;
25351;SDS011;13304;48.464;8.712;2024-02-23T00:38:11;3.72;;;0.70;;
25351;SDS011;13304;48.464;8.712;2024-02-23T00:40:36;3.10;;;0.50;;
25351;SDS011;13304;48.464;8.712;2024-02-23T00:43:03;4.80;;;0.82;;
25351;SDS011;13304;48.464;8.712;2024-02-23T00:45:29;3.45;;;0.70;;
25351;SDS011;13304;48.464;8.712;2024-02-23T00:47:55;8.27;;;0.93;;
25351;SDS011;13304;48.464;8.712;2024-02-23T00:50:22;2.20;;;0.70;;
25351;SDS011;13304;48.464;8.712;2024-02-23T00:52:51;4.25;;;0.90;;
25351;SDS011;13304;48.464;8.712;2024-02-23T00:55:17;2.38;;;0.43;;
25351;SDS011;13304;48.464;8.712;2024-02-23T00:57:43;7.82;;;0.77;;
25351;SDS011;13304;48.464;8.712;2024-02-23T01:00:08;5.82;;;0.63;;
25351;SDS011;13304;48.464;8.712;2024-02-23T01:02:35;3.92;;;0.60;;
25351;SDS011;13304;48.464;8.712;2024-02-23T01:05:00;1.95;;;0.60;;
25351;SDS011;13304;48.464;8.712;2024-02-23T01:07:27;6.97;;;0.65;;
25351;SDS011;13304;48.464;8.712;2024-02-23T01:09:53;1.83;;;0.70;;
25351;SDS011;13304;48.464;8.712;2024-02-23T01:12:18;8.13;;;0.73;;
25351;SDS011;13304;48.464;8.712;2024-02-23T01:14:44;2.53;;;0.60;;
25351;SDS011;13304;48.464;8.712;2024-02-23T01:17:13;1.98;;;0.45;;
25351;SDS011;13304;48.464;8.712;2024-02-23T01:19:40;1.08;;;0.45;;
25351;SDS011;13304;48.464;8.712;2024-02-23T01:22:06;4.97;;;0.70;;
25351;SDS011;13304;48.464;8.712;2024-02-23T01:24:32;4.00;;;0.70;;
25351;SDS011;13304;48.464;8.712;2024-02-23T01:26:58;4.35;;;0.50;;
25351;SDS011;13304;48.464;8.712;2024-02-23T01:29:25;4.22;;;0.70;;
25351;SDS011;13304;48.464;8.712;2024-02-23T01:31:51;3.25;;;0.52;;
25351;SDS011;13304;48.464;8.712;2024-02-23T01:34:19;3.38;;;0.65;;
25351;SDS011;13304;48.464;8.712;2024-02-23T01:36:45;5.28;;;0.70;;
25351;SDS011;13304;48.464;8.712;2024-02-23T01:39:11;3.33;;;0.60;;
25351;SDS011;13304;48.464;8.712;2024-02-23T01:41:36;2.00;;;0.60;;
25351;SDS011;13304;48.464;8.712;2024-02-23T01:44:02;3.97;;;0.80;;
25351;SDS011;13304;48.464;8.712;2024-02-23T01:46:28;2.45;;;0.43;;
25351;SDS011;13304;48.464;8.712;2024-02-23T01:48:54;3.00;;;0.60;;
25351;SDS011;13304;48.464;8.712;2024-02-23T01:51:20;4.13;;;0.50;;
25351;SDS011;13304;48.464;8.712;2024-02-23T01:53:46;2.15;;;0.38;;
25351;SDS011;13304;48.464;8.712;2024-02-23T01:56:12;1.65;;;0.40;;
25351;SDS011;13304;48.464;8.712;2024-02-23T01:58:43;2.15;;;0.57;;
25351;SDS011;13304;48.464;8.712;2024-02-23T02:01:10;3.38;;;0.65;;
25351;SDS011;13304;48.464;8.712;2024-02-23T02:03:37;1.40;;;0.40;;
25351;SDS011;13304;48.464;8.712;2024-02-23T02:06:04;3.23;;;0.60;;
25351;SDS011;13304;48.464;8.712;2024-02-23T02:08:31;1.92;;;0.68;;
25351;SDS011;13304;48.464;8.712;2024-02-23T02:10:58;2.00;;;0.60;;
25351;SDS011;13304;48.464;8.712;2024-02-23T02:13:24;2.67;;;0.55;;
25351;SDS011;13304;48.464;8.712;2024-02-23T02:15:50;2.10;;;0.45;;
25351;SDS011;13304;48.464;8.712;2024-02-23T02:18:16;1.95;;;0.45;;
25351;SDS011;13304;48.464;8.712;2024-02-23T02:20:47;0.50;;;0.28;;
25351;SDS011;13304;48.464;8.712;2024-02-23T02:23:17;2.75;;;0.77;;
25351;SDS011;13304;48.464;8.712;2024-02-23T02:25:43;1.13;;;0.50;;
25351;SDS011;13304;48.464;8.712;2024-02-23T02:28:09;0.93;;;0.45;;
25351;SDS011;13304;48.464;8.712;2024-02-23T02:30:34;2.47;;;0.50;;
25351;SDS011;13304;48.464;8.712;2024-02-23T02:33:00;2.50;;;0.30;;
25351;SDS011;13304;48.464;8.712;2024-02-23T02:35:26;1.50;;;0.40;;
25351;SDS011;13304;48.464;8.712;2024-02-23T02:37:51;4.15;;;0.52;;
25351;SDS011;13304;48.464;8.712;2024-02-23T02:40:17;2.10;;;0.40;;
25351;SDS011;13304;48.464;8.712;2024-02-23T02:42:43;2.97;;;0.60;;
25351;SDS011;13304;48.464;8.712;2024-02-23T02:45:08;2.60;;;0.70;;
25351;SDS011;13304;48.464;8.712;2024-02-23T02:47:34;4.28;;;0.68;;
25351;SDS011;13304;48.464;8.712;2024-02-23T02:50:01;2.15;;;0.55;;
25351;SDS011;13304;48.464;8.712;2024-02-23T02:52:27;1.77;;;0.70;;
25351;SDS011;13304;48.464;8.712;2024-02-23T02:54:53;1.63;;;0.55;;
25351;SDS011;13304;48.464;8.712;2024-02-23T02:57:19;1.38;;;0.40;;
25351;SDS011;13304;48.464;8.712;2024-02-23T02:59:44;1.65;;;0.52;;
25351;SDS011;13304;48.464;8.712;2024-02-23T03:02:11;0.95;;;0.50;;
25351;SDS011;13304;48.464;8.712;2024-02-23T03:04:37;1.67;;;0.50;;
25351;SDS011;13304;48.464;8.712;2024-02-23T03:07:02;2.25;;;0.65;;
25351;SDS011;13304;48.464;8.712;2024-02-23T03:09:28;2.83;;;0.57;;
25351;SDS011;13304;48.464;8.712;2024-02-23T03:11:54;2.00;;;0.55;;
25351;SDS011;13304;48.464;8.712;2024-02-23T03:14:20;1.83;;;0.40;;
25351;SDS011;13304;48.464;8.712;2024-02-23T03:16:46;1.75;;;0.50;;
25351;SDS011;13304;48.464;8.712;2024-02-23T03:19:12;2.60;;;0.50;;
25351;SDS011;13304;48.464;8.712;2024-02-23T03:21:38;3.10;;;0.73;;
25351;SDS011;13304;48.464;8.712;2024-02-23T03:24:04;1.35;;;0.50;;
25351;SDS011;13304;48.464;8.712;2024-02-23T03:26:29;1.60;;;0.50;;
25351;SDS011;13304;48.464;8.712;2024-02-23T03:28:55;1.58;;;0.47;;
25351;SDS011;13304;48.464;8.712;2024-02-23T03:31:21;1.60;;;0.60;;
25351;SDS011;13304;48.464;8.712;2024-02-23T03:33:46;5.85;;;0.68;;
25351;SDS011;13304;48.464;8.712;2024-02-23T03:36:12;3.92;;;0.82;;
25351;SDS011;13304;48.464;8.712;2024-02-23T03:38:37;6.55;;;0.80;;
25351;SDS011;13304;48.464;8.712;2024-02-23T03:41:03;3.22;;;0.77;;
25351;SDS011;13304;48.464;8.712;2024-02-23T03:43:29;2.80;;;0.55;;
25351;SDS011;13304;48.464;8.712;2024-02-23T03:45:54;3.88;;;0.88;;
25351;SDS011;13304;48.464;8.712;2024-02-23T03:48:20;3.05;;;0.57;;
25351;SDS011;13304;48.464;8.712;2024-02-23T03:50:46;3.67;;;0.80;;
25351;SDS011;13304;48.464;8.712;2024-02-23T03:53:11;8.40;;;0.63;;
25351;SDS011;13304;48.464;8.712;2024-02-23T03:55:37;3.22;;;0.88;;
25351;SDS011;13304;48.464;8.712;2024-02-23T03:58:03;4.55;;;0.70;;
25351;SDS011;13304;48.464;8.712;2024-02-23T04:00:28;2.28;;;0.63;;
25351;SDS011;13304;48.464;8.712;2024-02-23T04:02:54;2.83;;;0.98;;
25351;SDS011;13304;48.464;8.712;2024-02-23T04:05:20;2.22;;;0.57;;
25351;SDS011;13304;48.464;8.712;2024-02-23T04:07:45;4.65;;;0.90;;
25351;SDS011;13304;48.464;8.712;2024-02-23T04:10:11;3.65;;;1.00;;
25351;SDS011;13304;48.464;8.712;2024-02-23T04:12:41;2.95;;;0.70;;
25351;SDS011;13304;48.464;8.712;2024-02-23T04:15:08;3.55;;;0.80;;
25351;SDS011;13304;48.464;8.712;2024-02-23T04:17:34;2.80;;;0.68;;
25351;SDS011;13304;48.464;8.712;2024-02-23T04:20:00;4.05;;;0.80;;
25351;SDS011;13304;48.464;8.712;2024-02-23T04:22:30;4.18;;;0.80;;
25351;SDS011;13304;48.464;8.712;2024-02-23T04:24:55;2.58;;;0.40;;
25351;SDS011;13304;48.464;8.712;2024-02-23T04:27:21;2.00;;;0.55;;
25351;SDS011;13304;48.464;8.712;2024-02-23T04:29:47;4.07;;;0.50;;
25351;SDS011;13304;48.464;8.712;2024-02-23T04:32:12;5.53;;;0.70;;
25351;SDS011;13304;48.464;8.712;2024-02-23T04:34:38;1.50;;;0.55;;
25351;SDS011;13304;48.464;8.712;2024-02-23T04:37:05;2.63;;;0.93;;
25351;SDS011;13304;48.464;8.712;2024-02-23T04:39:31;3.83;;;0.70;;
25351;SDS011;13304;48.464;8.712;2024-02-23T04:41:56;2.95;;;0.88;;
25351;SDS011;13304;48.464;8.712;2024-02-23T04:44:23;2.17;;;0.60;;
25351;SDS011;13304;48.464;8.712;2024-02-23T04:46:49;3.40;;;0.93;;
25351;SDS011;13304;48.464;8.712;2024-02-23T04:49:14;6.22;;;0.70;;
25351;SDS011;13304;48.464;8.712;2024-02-23T04:51:40;6.15;;;0.82;;
25351;SDS011;13304;48.464;8.712;2024-02-23T04:54:05;4.82;;;0.95;;
25351;SDS011;13304;48.464;8.712;2024-02-23T04:56:31;2.95;;;0.80;;
25351;SDS011;13304;48.464;8.712;2024-02-23T04:58:58;3.85;;;0.80;;
25351;SDS011;13304;48.464;8.712;2024-02-23T05:01:24;2.90;;;0.50;;
25351;SDS011;13304;48.464;8.712;2024-02-23T05:03:50;5.63;;;0.90;;
25351;SDS011;13304;48.464;8.712;2024-02-23T05:06:15;2.90;;;0.70;;
25351;SDS011;13304;48.464;8.712;2024-02-23T05:08:41;6.82;;;1.58;;
25351;SDS011;13304;48.464;8.712;2024-02-23T05:11:06;38.60;;;18.15;;
25351;SDS011;13304;48.464;8.712;2024-02-23T05:13:32;7.32;;;3.67;;
25351;SDS011;13304;48.464;8.712;2024-02-23T05:15:58;5.35;;;1.70;;
25351;SDS011;13304;48.464;8.712;2024-02-23T05:18:23;3.63;;;1.35;;
25351;SDS011;13304;48.464;8.712;2024-02-23T05:20:49;4.80;;;0.98;;
25351;SDS011;13304;48.464;8.712;2024-02-23T05:23:15;3.03;;;0.65;;
25351;SDS011;13304;48.464;8.712;2024-02-23T05:25:43;4.47;;;0.90;;
25351;SDS011;13304;48.464;8.712;2024-02-23T05:28:09;2.53;;;0.77;;
25351;SDS011;13304;48.464;8.712;2024-02-23T05:30:34;4.22;;;0.82;;
25351;SDS011;13304;48.464;8.712;2024-02-23T05:33:00;5.35;;;0.93;;
25351;SDS011;13304;48.464;8.712;2024-02-23T05:35:28;3.72;;;0.80;;
25351;SDS011;13304;48.464;8.712;2024-02-23T05:37:54;5.57;;;0.93;;
25351;SDS011;13304;48.464;8.712;2024-02-23T05:40:20;4.68;;;0.65;;
25351;SDS011;13304;48.464;8.712;2024-02-23T05:42:46;2.72;;;0.70;;
25351;SDS011;13304;48.464;8.712;2024-02-23T05:45:12;3.90;;;0.70;;
25351;SDS011;13304;48.464;8.712;2024-02-23T05:47:38;3.15;;;0.80;;
25351;SDS011;13304;48.464;8.712;2024-02-23T05:50:04;3.25;;;0.88;;
25351;SDS011;13304;48.464;8.712;2024-02-23T05:52:31;7.25;;;1.00;;
25351;SDS011;13304;48.464;8.712;2024-02-23T05:54:57;3.88;;;0.75;;
25351;SDS011;13304;48.464;8.712;2024-02-23T05:57:25;1.80;;;0.70;;
25351;SDS011;13304;48.464;8.712;2024-02-23T05:59:53;4.40;;;1.08;;
25351;SDS011;13304;48.464;8.712;2024-02-23T06:02:20;6.50;;;1.33;;
25351;SDS011;13304;48.464;8.712;2024-02-23T06:04:46;5.63;;;1.02;;
25351;SDS011;13304;48.464;8.712;2024-02-23T06:07:12;3.95;;;1.00;;
25351;SDS011;13304;48.464;8.712;2024-02-23T06:09:40;6.78;;;1.23;;
25351;SDS011;13304;48.464;8.712;2024-02-23T06:12:06;4.35;;;1.00;;
25351;SDS011;13304;48.464;8.712;2024-02-23T06:14:33;8.00;;;0.80;;
25351;SDS011;13304;48.464;8.712;2024-02-23T06:16:59;1.55;;;0.73;;
25351;SDS011;13304;48.464;8.712;2024-02-23T06:19:24;2.55;;;0.90;;
25351;SDS011;13304;48.464;8.712;2024-02-23T06:21:50;4.60;;;0.85;;
25351;SDS011;13304;48.464;8.712;2024-02-23T06:24:16;7.15;;;1.20;;
25351;SDS011;13304;48.464;8.712;2024-02-23T06:26:42;3.70;;;0.90;;
25351;SDS011;13304;48.464;8.712;2024-02-23T06:29:08;7.28;;;0.90;;
25351;SDS011;13304;48.464;8.712;2024-02-23T06:31:39;2.47;;;0.90;;
25351;SDS011;13304;48.464;8.712;2024-02-23T06:34:05;3.80;;;1.48;;
25351;SDS011;13304;48.464;8.712;2024-02-23T06:36:31;3.33;;;1.00;;
25351;SDS011;13304;48.464;8.712;2024-02-23T06:38:56;3.17;;;1.00;;
25351;SDS011;13304;48.464;8.712;2024-02-23T06:41:22;2.55;;;0.68;;
25351;SDS011;13304;48.464;8.712;2024-02-23T06:43:48;4.00;;;1.08;;
25351;SDS011;13304;48.464;8.712;2024-02-23T06:46:14;5.00;;;0.75;;
25351;SDS011;13304;48.464;8.712;2024-02-23T06:48:39;3.70;;;1.13;;
25351;SDS011;13304;48.464;8.712;2024-02-23T06:51:05;3.70;;;0.80;;
25351;SDS011;13304;48.464;8.712;2024-02-23T06:53:34;3.60;;;1.23;;
25351;SDS011;13304;48.464;8.712;2024-02-23T06:56:01;4.68;;;1.25;;
25351;SDS011;13304;48.464;8.712;2024-02-23T06:58:27;5.68;;;0.80;;
25351;SDS011;13304;48.464;8.712;2024-02-23T07:00:53;6.85;;;1.00;;
25351;SDS011;13304;48.464;8.712;2024-02-23T07:03:18;5.28;;;1.40;;
25351;SDS011;13304;48.464;8.712;2024-02-23T07:05:44;7.20;;;1.08;;
25351;SDS011;13304;48.464;8.712;2024-02-23T07:08:11;5.72;;;1.23;;
25351;SDS011;13304;48.464;8.712;2024-02-23T07:10:37;7.95;;;1.00;;
25351;SDS011;13304;48.464;8.712;2024-02-23T07:13:02;5.07;;;1.00;;
25351;SDS011;13304;48.464;8.712;2024-02-23T07:15:28;3.05;;;0.90;;
25351;SDS011;13304;48.464;8.712;2024-02-23T07:17:55;7.25;;;1.02;;
25351;SDS011;13304;48.464;8.712;2024-02-23T07:20:21;5.28;;;1.10;;
25351;SDS011;13304;48.464;8.712;2024-02-23T07:22:47;3.97;;;1.00;;
25351;SDS011;13304;48.464;8.712;2024-02-23T07:25:16;7.00;;;1.10;;
25351;SDS011;13304;48.464;8.712;2024-02-23T07:27:43;1.90;;;0.95;;
25351;SDS011;13304;48.464;8.712;2024-02-23T07:30:10;8.48;;;1.10;;
25351;SDS011;13304;48.464;8.712;2024-02-23T07:32:36;3.30;;;0.90;;
25351;SDS011;13304;48.464;8.712;2024-02-23T07:35:03;4.25;;;1.10;;
25351;SDS011;13304;48.464;8.712;2024-02-23T07:37:29;5.15;;;1.30;;
25351;SDS011;13304;48.464;8.712;2024-02-23T07:39:55;6.63;;;0.90;;
25351;SDS011;13304;48.464;8.712;2024-02-23T07:42:20;2.03;;;0.85;;
25351;SDS011;13304;48.464;8.712;2024-02-23T07:44:46;6.28;;;0.85;;
25351;SDS011;13304;48.464;8.712;2024-02-23T07:47:12;5.38;;;1.10;;
25351;SDS011;13304;48.464;8.712;2024-02-23T07:49:38;5.38;;;1.00;;
25351;SDS011;13304;48.464;8.712;2024-02-23T07:52:05;6.70;;;1.00;;
25351;SDS011;13304;48.464;8.712;2024-02-23T07:54:32;5.45;;;1.25;;
25351;SDS011;13304;48.464;8.712;2024-02-23T07:56:57;5.25;;;1.10;;
25351;SDS011;13304;48.464;8.712;2024-02-23T07:59:24;3.60;;;1.00;;
25351;SDS011;13304;48.464;8.712;2024-02-23T08:01:49;5.90;;;1.15;;
25351;SDS011;13304;48.464;8.712;2024-02-23T08:04:15;3.63;;;1.10;;
25351;SDS011;13304;48.464;8.712;2024-02-23T08:06:41;4.15;;;1.15;;
25351;SDS011;13304;48.464;8.712;2024-02-23T08:09:08;6.70;;;1.05;;
25351;SDS011;13304;48.464;8.712;2024-02-23T08:11:34;4.22;;;1.70;;
25351;SDS011;13304;48.464;8.712;2024-02-23T08:14:00;9.65;;;1.92;;
25351;SDS011;13304;48.464;8.712;2024-02-23T08:16:28;5.47;;;0.98;;
25351;SDS011;13304;48.464;8.712;2024-02-23T08:18:53;5.53;;;0.77;;
25351;SDS011;13304;48.464;8.712;2024-02-23T08:21:19;6.57;;;1.05;;
25351;SDS011;13304;48.464;8.712;2024-02-23T08:23:45;6.85;;;1.23;;
25351;SDS011;13304;48.464;8.712;2024-02-23T08:26:11;6.93;;;1.23;;
25351;SDS011;13304;48.464;8.712;2024-02-23T08:28:37;6.28;;;1.27;;
25351;SDS011;13304;48.464;8.712;2024-02-23T08:31:03;8.13;;;1.20;;
25351;SDS011;13304;48.464;8.712;2024-02-23T08:33:28;4.88;;;1.20;;
25351;SDS011;13304;48.464;8.712;2024-02-23T08:35:54;8.38;;;1.38;;
25351;SDS011;13304;48.464;8.712;2024-02-23T08:38:20;6.82;;;1.55;;
25351;SDS011;13304;48.464;8.712;2024-02-23T08:40:45;5.68;;;1.10;;
25351;SDS011;13304;48.464;8.712;2024-02-23T08:43:11;10.98;;;1.48;;
25351;SDS011;13304;48.464;8.712;2024-02-23T08:45:38;7.15;;;1.25;;
25351;SDS011;13304;48.464;8.712;2024-02-23T08:48:04;9.95;;;1.80;;
25351;SDS011;13304;48.464;8.712;2024-02-23T08:50:30;9.30;;;1.80;;
25351;SDS011;13304;48.464;8.712;2024-02-23T08:52:55;8.15;;;1.20;;
25351;SDS011;13304;48.464;8.712;2024-02-23T08:55:21;5.60;;;1.02;;
25351;SDS011;13304;48.464;8.712;2024-02-23T08:57:47;4.10;;;1.20;;
25351;SDS011;13304;48.464;8.712;2024-02-23T09:00:13;6.55;;;1.33;;
25351;SDS011;13304;48.464;8.712;2024-02-23T09:02:39;10.43;;;1.98;;
25351;SDS011;13304;48.464;8.712;2024-02-23T09:05:07;8.32;;;1.80;;
25351;SDS011;13304;48.464;8.712;2024-02-23T09:07:33;14.23;;;2.20;;
25351;SDS011;13304;48.464;8.712;2024-02-23T09:09:59;16.48;;;2.90;;
25351;SDS011;13304;48.464;8.712;2024-02-23T09:12:25;20.48;;;3.97;;
25351;SDS011;13304;48.464;8.712;2024-02-23T09:14:51;15.15;;;2.85;;
25351;SDS011;13304;48.464;8.712;2024-02-23T09:17:16;10.85;;;2.05;;
25351;SDS011;13304;48.464;8.712;2024-02-23T09:19:44;9.00;;;1.38;;
25351;SDS011;13304;48.464;8.712;2024-02-23T09:22:10;9.68;;;1.70;;
25351;SDS011;13304;48.464;8.712;2024-02-23T09:24:39;19.70;;;2.22;;
25351;SDS011;13304;48.464;8.712;2024-02-23T09:27:05;8.05;;;1.80;;
25351;SDS011;13304;48.464;8.712;2024-02-23T09:29:32;17.35;;;2.15;;
25351;SDS011;13304;48.464;8.712;2024-02-23T09:31:58;7.05;;;1.77;;
25351;SDS011;13304;48.464;8.712;2024-02-23T09:34:23;8.75;;;2.50;;
25351;SDS011;13304;48.464;8.712;2024-02-23T09:36:50;7.18;;;1.77;;
25351;SDS011;13304;48.464;8.712;2024-02-23T09:39:15;5.88;;;1.33;;
25351;SDS011;13304;48.464;8.712;2024-02-23T09:41:42;11.20;;;1.55;;
25351;SDS011;13304;48.464;8.712;2024-02-23T09:44:08;16.55;;;3.03;;
25351;SDS011;13304;48.464;8.712;2024-02-23T09:46:36;9.65;;;2.10;;
25351;SDS011;13304;48.464;8.712;2024-02-23T09:49:02;12.77;;;1.60;;
25351;SDS011;13304;48.464;8.712;2024-02-23T09:51:31;18.25;;;2.70;;
25351;SDS011;13304;48.464;8.712;2024-02-23T09:53:58;8.73;;;2.10;;
25351;SDS011;13304;48.464;8.712;2024-02-23T09:56:25;8.18;;;1.98;;
25351;SDS011;13304;48.464;8.712;2024-02-23T10:01:24;5.35;;;1.30;;
25351;SDS011;13304;48.464;8.712;2024-02-23T10:03:55;5.55;;;1.35;;
25351;SDS011;13304;48.464;8.712;2024-02-23T10:06:22;8.38;;;1.58;;
25351;SDS011;13304;48.464;8.712;2024-02-23T10:08:49;5.13;;;1.17;;
25351;SDS011;13304;48.464;8.712;2024-02-23T10:11:17;6.95;;;1.42;;
25351;SDS011;13304;48.464;8.712;2024-02-23T10:13:44;4.50;;;1.23;;
25351;SDS011;13304;48.464;8.712;2024-02-23T10:16:09;8.90;;;1.52;;
25351;SDS011;13304;48.464;8.712;2024-02-23T10:18:37;10.90;;;1.58;;
25351;SDS011;13304;48.464;8.712;2024-02-23T10:21:04;10.05;;;1.65;;
25351;SDS011;13304;48.464;8.712;2024-02-23T10:23:30;8.70;;;1.98;;
25351;SDS011;13304;48.464;8.712;2024-02-23T10:25:56;7.68;;;1.90;;
25351;SDS011;13304;48.464;8.712;2024-02-23T10:28:24;10.32;;;2.25;;
25351;SDS011;13304;48.464;8.712;2024-02-23T10:30:50;5.68;;;1.60;;
25351;SDS011;13304;48.464;8.712;2024-02-23T10:33:15;6.57;;;1.60;;
25351;SDS011;13304;48.464;8.712;2024-02-23T10:35:46;11.90;;;2.00;;
25351;SDS011;13304;48.464;8.712;2024-02-23T10:38:13;9.07;;;1.63;;
25351;SDS011;13304;48.464;8.712;2024-02-23T10:40:43;11.07;;;1.80;;
25351;SDS011;13304;48.464;8.712;2024-02-23T10:43:12;8.80;;;1.60;;
25351;SDS011;13304;48.464;8.712;2024-02-23T10:45:41;15.38;;;1.98;;
25351;SDS011;13304;48.464;8.712;2024-02-23T10:48:08;13.27;;;2.10;;
25351;SDS011;13304;48.464;8.712;2024-02-23T10:50:35;7.35;;;1.60;;
25351;SDS011;13304;48.464;8.712;2024-02-23T10:53:03;11.25;;;1.58;;
25351;SDS011;13304;48.464;8.712;2024-02-23T10:55:31;7.95;;;1.83;;
25351;SDS011;13304;48.464;8.712;2024-02-23T10:57:58;8.52;;;1.48;;
25351;SDS011;13304;48.464;8.712;2024-02-23T11:00:25;7.88;;;1.50;;
25351;SDS011;13304;48.464;8.712;2024-02-23T11:02:51;14.45;;;2.33;;
25351;SDS011;13304;48.464;8.712;2024-02-23T11:05:19;14.02;;;2.53;;
25351;SDS011;13304;48.464;8.712;2024-02-23T11:07:46;7.97;;;1.50;;
25351;SDS011;13304;48.464;8.712;2024-02-23T11:10:17;15.05;;;2.47;;
25351;SDS011;13304;48.464;8.712;2024-02-23T11:12:44;11.30;;;1.95;;
25351;SDS011;13304;48.464;8.712;2024-02-23T11:15:09;15.75;;;2.80;;
25351;SDS011;13304;48.464;8.712;2024-02-23T11:17:54;17.77;;;2.17;;
25351;SDS011;13304;48.464;8.712;2024-02-23T11:20:20;10.63;;;1.98;;
25351;SDS011;13304;48.464;8.712;2024-02-23T11:22:53;8.23;;;1.75;;
25351;SDS011;13304;48.464;8.712;2024-02-23T11:25:19;13.90;;;3.90;;
25351;SDS011;13304;48.464;8.712;2024-02-23T11:27:48;13.93;;;2.78;;
25351;SDS011;13304;48.464;8.712;2024-02-23T11:30:16;17.63;;;3.25;;
25351;SDS011;13304;48.464;8.712;2024-02-23T11:32:43;14.00;;;3.05;;
25351;SDS011;13304;48.464;8.712;2024-02-23T11:37:48;10.90;;;2.17;;
25351;SDS011;13304;48.464;8.712;2024-02-23T11:40:21;16.88;;;2.15;;
25351;SDS011;13304;48.464;8.712;2024-02-23T11:42:47;12.70;;;1.90;;
25351;SDS011;13304;48.464;8.712;2024-02-23T11:45:13;14.00;;;2.25;;
25351;SDS011;13304;48.464;8.712;2024-02-23T11:47:39;15.60;;;2.45;;
25351;SDS011;13304;48.464;8.712;2024-02-23T11:50:08;12.43;;;2.42;;
25351;SDS011;13304;48.464;8.712;2024-02-23T11:52:35;13.90;;;2.42;;
25351;SDS011;13304;48.464;8.712;2024-02-23T11:55:02;13.13;;;2.42;;
25351;SDS011;13304;48.464;8.712;2024-02-23T11:57:30;11.82;;;2.20;;
25351;SDS011;13304;48.464;8.712;2024-02-23T11:59:57;12.40;;;2.10;;
25351;SDS011;13304;48.464;8.712;2024-02-23T12:02:23;11.55;;;2.72;;
25351;SDS011;13304;48.464;8.712;2024-02-23T12:04:49;18.25;;;3.13;;
25351;SDS011;13304;48.464;8.712;2024-02-23T12:07:15;11.45;;;2.92;;
25351;SDS011;13304;48.464;8.712;2024-02-23T12:09:41;12.98;;;2.50;;
25351;SDS011;13304;48.464;8.712;2024-02-23T12:12:08;8.80;;;1.98;;
25351;SDS011;13304;48.464;8.712;2024-02-23T12:14:37;12.23;;;2.92;;
25351;SDS011;13304;48.464;8.712;2024-02-23T12:17:04;12.82;;;2.45;;
25351;SDS011;13304;48.464;8.712;2024-02-23T12:19:32;15.45;;;2.75;;
25351;SDS011;13304;48.464;8.712;2024-02-23T12:22:01;19.50;;;4.50;;
25351;SDS011;13304;48.464;8.712;2024-02-23T12:24:26;17.90;;;3.85;;
25351;SDS011;13304;48.464;8.712;2024-02-23T12:26:56;17.13;;;5.43;;
25351;SDS011;13304;48.464;8.712;2024-02-23T12:29:22;30.45;;;7.78;;
25351;SDS011;13304;48.464;8.712;2024-02-23T12:31:48;16.90;;;3.90;;
25351;SDS011;13304;48.464;8.712;2024-02-23T12:34:14;15.52;;;3.28;;
25351;SDS011;13304;48.464;8.712;2024-02-23T12:36:40;18.92;;;4.40;;
25351;SDS011;13304;48.464;8.712;2024-02-23T12:39:05;23.05;;;5.28;;
25351;SDS011;13304;48.464;8.712;2024-02-23T12:41:31;25.48;;;5.50;;
25351;SDS011;13304;48.464;8.712;2024-02-23T12:43:57;19.30;;;4.55;;
25351;SDS011;13304;48.464;8.712;2024-02-23T12:46:23;16.08;;;3.53;;
25351;SDS011;13304;48.464;8.712;2024-02-23T12:48:49;27.23;;;5.13;;
25351;SDS011;13304;48.464;8.712;2024-02-23T12:51:15;12.90;;;2.38;;
25351;SDS011;13304;48.464;8.712;2024-02-23T12:53:41;11.45;;;2.58;;
25351;SDS011;13304;48.464;8.712;2024-02-23T12:58:38;14.95;;;2.65;;
25351;SDS011;13304;48.464;8.712;2024-02-23T13:01:06;10.40;;;2.42;;
25351;SDS011;13304;48.464;8.712;2024-02-23T13:03:33;11.35;;;2.35;;
25351;SDS011;13304;48.464;8.712;2024-02-23T13:06:00;16.67;;;3.25;;
25351;SDS011;13304;48.464;8.712;2024-02-23T13:08:26;16.90;;;2.92;;
25351;SDS011;13304;48.464;8.712;2024-02-23T13:10:52;8.95;;;2.10;;
25351;SDS011;13304;48.464;8.712;2024-02-23T13:13:19;8.73;;;2.25;;
25351;SDS011;13304;48.464;8.712;2024-02-23T13:15:45;12.32;;;3.47;;
25351;SDS011;13304;48.464;8.712;2024-02-23T13:18:12;14.25;;;2.45;;
25351;SDS011;13304;48.464;8.712;2024-02-23T13:20:38;11.23;;;1.90;;
25351;SDS011;13304;48.464;8.712;2024-02-23T13:23:04;16.90;;;3.33;;
25351;SDS011;13304;48.464;8.712;2024-02-23T13:25:33;13.25;;;2.72;;
25351;SDS011;13304;48.464;8.712;2024-02-23T13:27:59;18.63;;;5.65;;
25351;SDS011;13304;48.464;8.712;2024-02-23T13:30:25;12.43;;;3.63;;
25351;SDS011;13304;48.464;8.712;2024-02-23T13:32:51;13.80;;;2.55;;
25351;SDS011;13304;48.464;8.712;2024-02-23T13:35:17;16.83;;;4.10;;
25351;SDS011;13304;48.464;8.712;2024-02-23T13:37:43;11.15;;;2.78;;
25351;SDS011;13304;48.464;8.712;2024-02-23T13:40:09;16.02;;;3.47;;
25351;SDS011;13304;48.464;8.712;2024-02-23T13:42:36;15.10;;;3.13;;
25351;SDS011;13304;48.464;8.712;2024-02-23T13:45:06;19.50;;;4.80;;
25351;SDS011;13304;48.464;8.712;2024-02-23T13:47:32;17.58;;;4.72;;
25351;SDS011;13304;48.464;8.712;2024-02-23T13:49:59;12.98;;;2.97;;
25351;SDS011;13304;48.464;8.712;2024-02-23T13:52:24;12.77;;;2.15;;
25351;SDS011;13304;48.464;8.712;2024-02-23T13:54:50;21.83;;;4.47;;
25351;SDS011;13304;48.464;8.712;2024-02-23T13:57:16;8.48;;;2.13;;
25351;SDS011;13304;48.464;8.712;2024-02-23T13:59:42;11.13;;;2.55;;
25351;SDS011;13304;48.464;8.712;2024-02-23T14:02:07;23.60;;;4.40;;
25351;SDS011;13304;48.464;8.712;2024-02-23T14:04:33;10.98;;;2.40;;
25351;SDS011;13304;48.464;8.712;2024-02-23T14:06:59;21.65;;;3.80;;
25351;SDS011;13304;48.464;8.712;2024-02-23T14:09:24;9.10;;;2.30;;
25351;SDS011;13304;48.464;8.712;2024-02-23T14:11:50;16.10;;;2.15;;
25351;SDS011;13304;48.464;8.712;2024-02-23T14:14:16;14.50;;;3.33;;
25351;SDS011;13304;48.464;8.712;2024-02-23T14:16:42;13.80;;;3.20;;
25351;SDS011;13304;48.464;8.712;2024-02-23T14:19:07;24.15;;;4.82;;
25351;SDS011;13304;48.464;8.712;2024-02-23T14:21:33;19.02;;;4.97;;
25351;SDS011;13304;48.464;8.712;2024-02-23T14:24:01;16.77;;;3.58;;
25351;SDS011;13304;48.464;8.712;2024-02-23T14:26:27;12.88;;;3.30;;
25351;SDS011;13304;48.464;8.712;2024-02-23T14:28:53;14.90;;;4.40;;
25351;SDS011;13304;48.464;8.712;2024-02-23T14:31:19;24.65;;;6.40;;
25351;SDS011;13304;48.464;8.712;2024-02-23T14:33:44;18.45;;;5.05;;
25351;SDS011;13304;48.464;8.712;2024-02-23T14:36:10;13.05;;;3.80;;
25351;SDS011;13304;48.464;8.712;2024-02-23T14:38:36;15.35;;;4.40;;
25351;SDS011;13304;48.464;8.712;2024-02-23T14:41:02;13.05;;;2.45;;
25351;SDS011;13304;48.464;8.712;2024-02-23T14:43:27;11.55;;;3.00;;
25351;SDS011;13304;48.464;8.712;2024-02-23T14:45:56;11.43;;;3.25;;